createdAt,value
2019-03-04T00:02:02.000Z,4.42
2019-03-04T00:04:29.284Z,4.33
2019-03-04T00:06:56.678Z,5.00
2019-03-04T00:09:24.049Z,4.08
2019-03-04T00:11:51.332Z,4.33
2019-03-04T00:14:18.618Z,4.17
2019-03-04T00:16:45.889Z,4.33
2019-03-04T00:19:13.174Z,4.30
2019-03-04T00:21:40.822Z,4.58
2019-03-04T00:24:08.112Z,4.83
2019-03-04T00:26:35.490Z,4.45
2019-03-04T00:29:02.761Z,4.30
2019-03-04T00:31:30.069Z,4.60
2019-03-04T00:33:57.343Z,4.28
2019-03-04T00:36:24.635Z,4.33
2019-03-04T00:38:52.142Z,4.55
2019-03-04T00:41:19.427Z,4.25
2019-03-04T00:43:46.701Z,4.22
2019-03-04T00:46:14.002Z,3.87
2019-03-04T00:48:41.318Z,4.25
2019-03-04T00:51:08.611Z,3.77
2019-03-04T00:53:35.979Z,4.20
2019-03-04T00:56:03.291Z,4.20
2019-03-04T00:58:30.852Z,4.05
2019-03-04T01:00:58.122Z,4.22
2019-03-04T01:03:25.531Z,3.95
2019-03-04T01:05:52.861Z,4.17
2019-03-04T01:08:20.161Z,4.15
2019-03-04T01:10:47.528Z,4.17
2019-03-04T01:13:14.870Z,4.03
2019-03-04T01:15:42.626Z,3.95
2019-03-04T01:18:09.965Z,3.70
2019-03-04T01:20:37.242Z,4.00
2019-03-04T01:23:04.806Z,4.28
2019-03-04T01:25:32.080Z,3.65
2019-03-04T01:27:59.380Z,3.77
2019-03-04T01:30:27.149Z,3.98
2019-03-04T01:32:54.449Z,4.00
2019-03-04T01:35:21.858Z,4.17
2019-03-04T01:37:49.179Z,3.85
2019-03-04T01:40:17.837Z,3.92
2019-03-04T01:42:45.259Z,3.60
2019-03-04T01:45:13.618Z,3.75
2019-03-04T01:47:40.907Z,3.60
2019-03-04T01:50:11.939Z,4.00
2019-03-04T01:52:39.240Z,4.03
2019-03-04T01:55:07.749Z,3.75
2019-03-04T01:57:35.028Z,3.83
2019-03-04T02:00:02.314Z,3.90
2019-03-04T02:02:29.817Z,3.55
2019-03-04T02:04:57.402Z,3.40
2019-03-04T02:07:24.676Z,3.80
2019-03-04T02:09:52.029Z,3.47
2019-03-04T02:12:19.321Z,3.80
2019-03-04T02:14:46.702Z,3.83
2019-03-04T02:17:13.973Z,3.42
2019-03-04T02:19:41.253Z,3.40
2019-03-04T02:22:08.534Z,4.00
2019-03-04T02:24:35.817Z,3.40
2019-03-04T02:27:03.084Z,3.45
2019-03-04T02:29:30.362Z,3.87
2019-03-04T02:31:57.703Z,3.42
2019-03-04T02:34:25.073Z,3.55
2019-03-04T02:36:52.415Z,3.55
2019-03-04T02:39:19.700Z,3.98
2019-03-04T02:41:48.079Z,3.37
2019-03-04T02:44:15.418Z,3.92
2019-03-04T02:46:42.866Z,3.72
2019-03-04T02:49:10.199Z,3.50
2019-03-04T02:51:38.131Z,3.30
2019-03-04T02:54:05.400Z,3.70
2019-03-04T02:56:32.697Z,3.47
2019-03-04T02:58:59.977Z,3.47
2019-03-04T03:01:27.329Z,3.45
2019-03-04T03:03:54.665Z,3.33
2019-03-04T03:06:21.943Z,3.27
2019-03-04T03:08:49.248Z,3.10
2019-03-04T03:11:16.610Z,3.65
2019-03-04T03:13:43.886Z,3.25
2019-03-04T03:16:11.163Z,3.30
2019-03-04T03:18:38.469Z,3.08
2019-03-04T03:21:05.758Z,3.33
2019-03-04T03:23:33.043Z,3.20
2019-03-04T03:26:00.365Z,2.95
2019-03-04T03:28:27.732Z,3.30
2019-03-04T03:30:55.093Z,3.00
2019-03-04T03:33:22.435Z,3.42
2019-03-04T03:35:49.788Z,3.65
2019-03-04T03:38:17.097Z,3.42
2019-03-04T03:40:44.371Z,3.25
2019-03-04T03:43:11.663Z,2.95
2019-03-04T03:45:39.013Z,3.20
2019-03-04T03:48:06.563Z,3.22
2019-03-04T03:50:33.909Z,3.45
2019-03-04T03:53:01.189Z,3.05
2019-03-04T03:55:28.565Z,3.20
2019-03-04T03:57:55.935Z,3.50
2019-03-04T04:00:26.194Z,3.10
2019-03-04T04:02:53.479Z,2.95
2019-03-04T04:05:20.852Z,3.15
2019-03-04T04:07:48.135Z,3.08
2019-03-04T04:10:16.160Z,3.42
2019-03-04T04:12:43.512Z,2.90
2019-03-04T04:15:14.880Z,2.85
2019-03-04T04:17:42.225Z,3.10
2019-03-04T04:20:10.291Z,3.08
2019-03-04T04:22:37.559Z,2.77
2019-03-04T04:25:05.514Z,2.87
2019-03-04T04:27:32.898Z,2.98
2019-03-04T04:30:00.381Z,2.70
2019-03-04T04:32:27.896Z,2.72
2019-03-04T04:34:55.368Z,2.85
2019-03-04T04:37:22.737Z,2.95
2019-03-04T04:39:50.001Z,3.25
2019-03-04T04:42:17.311Z,2.75
2019-03-04T04:44:44.601Z,2.85
2019-03-04T04:47:11.964Z,2.65
2019-03-04T04:49:39.342Z,2.80
2019-03-04T04:52:06.628Z,3.17
2019-03-04T04:54:33.982Z,2.70
2019-03-04T04:57:01.252Z,2.60
2019-03-04T04:59:28.533Z,2.60
2019-03-04T05:01:55.801Z,2.87
2019-03-04T05:04:23.097Z,2.80
2019-03-04T05:06:50.444Z,2.70
2019-03-04T05:09:17.843Z,3.12
2019-03-04T05:11:45.188Z,2.60
2019-03-04T05:14:12.474Z,2.50
2019-03-04T05:16:39.844Z,2.77
2019-03-04T05:19:07.239Z,3.00
2019-03-04T05:21:34.530Z,2.75
2019-03-04T05:24:02.423Z,2.65
2019-03-04T05:26:29.763Z,2.80
2019-03-04T05:28:57.116Z,2.75
2019-03-04T05:31:24.394Z,2.67
2019-03-04T05:33:51.665Z,2.72
2019-03-04T05:36:18.954Z,2.92
2019-03-04T05:38:46.266Z,3.15
2019-03-04T05:41:13.544Z,3.25
2019-03-04T05:43:41.225Z,2.90
2019-03-04T05:46:08.668Z,3.00
2019-03-04T05:48:35.966Z,2.90
2019-03-04T05:51:03.316Z,2.80
2019-03-04T05:53:30.957Z,3.67
2019-03-04T05:55:58.307Z,2.85
2019-03-04T05:58:25.587Z,3.08
2019-03-04T06:01:12.442Z,3.25
2019-03-04T06:03:39.723Z,2.77
2019-03-04T06:06:07.003Z,2.83
2019-03-04T06:08:34.283Z,2.50
2019-03-04T06:11:01.605Z,2.70
2019-03-04T06:13:28.886Z,3.22
2019-03-04T06:15:56.906Z,3.00
2019-03-04T06:18:24.195Z,2.80
2019-03-04T06:20:51.478Z,2.80
2019-03-04T06:23:18.794Z,2.40
2019-03-04T06:25:46.072Z,2.65
2019-03-04T06:28:13.373Z,3.22
2019-03-04T06:30:40.665Z,2.80
2019-03-04T06:33:11.542Z,2.65
2019-03-04T06:35:38.858Z,3.08
2019-03-04T06:38:06.209Z,2.87
2019-03-04T06:40:33.504Z,2.92
2019-03-04T06:43:00.870Z,3.87
2019-03-04T06:45:28.179Z,3.45
2019-03-04T06:47:55.682Z,3.60
2019-03-04T06:50:41.354Z,4.78
2019-03-04T06:53:08.725Z,6.50
2019-03-04T06:55:37.557Z,6.25
2019-03-04T06:58:05.186Z,7.00
2019-03-04T07:00:34.118Z,6.67
2019-03-04T07:03:01.400Z,8.35
2019-03-04T07:05:30.226Z,7.40
2019-03-04T07:07:57.507Z,7.33
2019-03-04T07:10:25.466Z,8.05
2019-03-04T07:12:52.764Z,8.03
2019-03-04T07:15:20.177Z,7.00
2019-03-04T07:17:47.658Z,7.60
2019-03-04T07:20:16.489Z,6.95
2019-03-04T07:22:44.019Z,7.42
2019-03-04T07:25:11.424Z,6.30
2019-03-04T07:27:38.692Z,7.53
2019-03-04T07:30:07.523Z,6.50
2019-03-04T07:32:34.799Z,6.15
2019-03-04T07:35:02.152Z,6.92
2019-03-04T07:37:29.434Z,6.10
2019-03-04T07:39:56.716Z,6.53
2019-03-04T07:42:26.060Z,6.42
2019-03-04T07:44:53.378Z,5.83
2019-03-04T07:47:20.658Z,5.47
2019-03-04T07:49:49.145Z,6.37
2019-03-04T07:52:16.425Z,4.72
2019-03-04T07:54:43.741Z,5.70
2019-03-04T07:57:11.018Z,5.70
2019-03-04T07:59:38.979Z,5.08
2019-03-04T08:02:06.824Z,4.80
2019-03-04T08:04:34.407Z,5.05
2019-03-04T08:07:03.283Z,4.90
2019-03-04T08:09:32.128Z,5.00
2019-03-04T08:12:19.147Z,4.95
2019-03-04T08:14:47.232Z,4.75
2019-03-04T08:17:14.513Z,4.50
2019-03-04T08:19:41.822Z,4.58
2019-03-04T08:22:09.115Z,4.00
2019-03-04T08:24:36.948Z,4.47
2019-03-04T08:27:05.303Z,4.20
2019-03-04T08:29:32.573Z,4.08
2019-03-04T08:31:59.864Z,4.15
2019-03-04T08:34:31.055Z,4.05
2019-03-04T08:36:56.160Z,4.15
2019-03-04T08:39:23.466Z,3.90
2019-03-04T08:41:50.876Z,3.70
2019-03-04T08:44:18.188Z,4.00
2019-03-04T08:46:45.491Z,3.77
2019-03-04T08:49:12.775Z,3.98
2019-03-04T08:51:40.082Z,4.10
2019-03-04T08:54:07.362Z,3.70
2019-03-04T08:56:34.652Z,3.77
2019-03-04T08:59:02.016Z,4.25
2019-03-04T09:01:31.194Z,3.33
2019-03-04T09:03:58.388Z,3.77
2019-03-04T09:06:25.873Z,3.98
2019-03-04T09:08:53.134Z,3.80
2019-03-04T09:11:20.416Z,3.67
2019-03-04T09:13:47.699Z,3.85
2019-03-04T09:16:14.987Z,3.85
2019-03-04T09:18:42.340Z,3.60
2019-03-04T09:21:09.692Z,4.20
2019-03-04T09:23:37.011Z,3.95
2019-03-04T09:26:05.761Z,3.90
2019-03-04T09:28:33.051Z,3.95
2019-03-04T09:31:00.402Z,3.72
2019-03-04T09:33:27.688Z,3.50
2019-03-04T09:35:54.986Z,3.92
2019-03-04T09:38:22.311Z,4.17
2019-03-04T09:40:49.594Z,4.10
2019-03-04T09:43:16.885Z,4.12
2019-03-04T09:45:44.311Z,4.50
2019-03-04T09:48:12.130Z,4.47
2019-03-04T09:50:39.651Z,4.03
2019-03-04T09:53:06.996Z,4.15
2019-03-04T09:55:34.274Z,4.17
2019-03-04T09:58:01.557Z,3.95
2019-03-04T10:00:39.402Z,4.50
2019-03-04T10:03:08.213Z,3.87
2019-03-04T10:05:39.725Z,4.45
2019-03-04T10:08:08.578Z,3.83
2019-03-04T10:10:52.330Z,4.67
2019-03-04T10:13:30.217Z,5.28
2019-03-04T10:16:01.961Z,5.72
2019-03-04T10:18:30.795Z,5.85
2019-03-04T10:21:02.490Z,5.55
2019-03-04T10:23:40.168Z,5.87
2019-03-04T10:26:08.978Z,5.00
2019-03-04T10:28:37.805Z,5.17
2019-03-04T10:31:15.569Z,5.30
2019-03-04T10:33:44.386Z,4.50
2019-03-04T10:36:25.343Z,4.70
2019-03-04T10:38:54.179Z,4.40
2019-03-04T10:41:25.647Z,4.05
2019-03-04T10:44:00.210Z,3.33
2019-03-04T10:46:34.791Z,4.22
2019-03-04T10:49:02.074Z,4.05
2019-03-04T10:51:29.374Z,3.62
2019-03-04T10:53:56.739Z,3.72
2019-03-04T10:56:24.051Z,3.55
2019-03-04T10:58:51.341Z,3.70
2019-03-04T11:01:18.624Z,3.17
2019-03-04T11:03:46.115Z,3.20
2019-03-04T11:06:14.603Z,3.67
2019-03-04T11:08:41.969Z,3.17
2019-03-04T11:11:09.267Z,3.42
2019-03-04T11:13:36.615Z,3.22
2019-03-04T11:16:03.910Z,3.12
2019-03-04T11:18:31.239Z,2.72
2019-03-04T11:20:58.586Z,2.90
2019-03-04T11:23:27.032Z,2.85
2019-03-04T11:25:54.308Z,2.90
2019-03-04T11:28:21.660Z,2.50
2019-03-04T11:30:49.111Z,2.85
2019-03-04T11:33:16.418Z,2.40
2019-03-04T11:35:43.695Z,2.40
2019-03-04T11:38:27.534Z,2.70
2019-03-04T11:40:54.845Z,2.55
2019-03-04T11:43:22.144Z,2.62
2019-03-04T11:45:49.420Z,2.80
2019-03-04T11:48:16.731Z,2.72
2019-03-04T11:50:44.015Z,2.80
2019-03-04T11:53:11.299Z,2.33
2019-03-04T11:55:38.603Z,2.27
2019-03-04T11:58:05.956Z,2.83
2019-03-04T12:00:34.981Z,2.75
2019-03-04T12:03:02.350Z,2.42
2019-03-04T12:05:29.638Z,2.58
2019-03-04T12:07:57.018Z,2.62
2019-03-04T12:10:24.289Z,2.62
2019-03-04T12:12:51.571Z,2.45
2019-03-04T12:15:19.683Z,2.58
2019-03-04T12:17:47.034Z,2.40
2019-03-04T12:20:14.730Z,2.40
2019-03-04T12:22:42.032Z,2.10
2019-03-04T12:25:11.183Z,2.45
2019-03-04T12:27:38.574Z,2.40
2019-03-04T12:30:07.391Z,2.12
2019-03-04T12:32:34.662Z,2.58
2019-03-04T12:35:01.968Z,2.77
2019-03-04T12:37:29.321Z,3.30
2019-03-04T12:39:56.633Z,2.58
2019-03-04T12:42:23.987Z,2.70
2019-03-04T12:44:51.259Z,2.30
2019-03-04T12:47:18.799Z,2.60
2019-03-04T12:49:46.229Z,2.67
2019-03-04T12:52:13.586Z,2.45
2019-03-04T12:54:40.898Z,2.50
2019-03-04T12:57:08.187Z,2.33
2019-03-04T12:59:35.450Z,2.60
2019-03-04T13:02:02.758Z,2.33
2019-03-04T13:04:30.038Z,2.60
2019-03-04T13:06:57.315Z,2.47
2019-03-04T13:09:24.612Z,2.33
2019-03-04T13:11:51.976Z,2.20
2019-03-04T13:14:19.530Z,2.50
2019-03-04T13:16:46.839Z,2.25
2019-03-04T13:19:14.141Z,2.05
2019-03-04T13:21:41.423Z,2.40
2019-03-04T13:24:08.711Z,2.50
2019-03-04T13:26:36.018Z,2.40
2019-03-04T13:29:04.954Z,2.45
2019-03-04T13:31:32.435Z,2.83
2019-03-04T13:33:59.850Z,2.98
2019-03-04T13:36:27.192Z,2.58
2019-03-04T13:38:54.497Z,3.20
2019-03-04T13:41:21.767Z,3.50
2019-03-04T13:43:49.049Z,3.40
2019-03-04T13:46:16.327Z,4.17
2019-03-04T13:48:43.630Z,3.98
2019-03-04T13:51:10.972Z,4.90
2019-03-04T13:53:38.254Z,5.12
2019-03-04T13:56:05.545Z,6.03
2019-03-04T13:58:32.957Z,7.17
2019-03-04T14:01:00.482Z,7.20
2019-03-04T14:03:27.764Z,7.95
2019-03-04T14:05:55.204Z,8.15
2019-03-04T14:08:22.504Z,8.40
2019-03-04T14:10:49.789Z,8.50
2019-03-04T14:13:17.087Z,8.33
2019-03-04T14:15:48.384Z,8.48
2019-03-04T14:18:15.817Z,8.13
2019-03-04T14:20:43.113Z,7.80
2019-03-04T14:23:10.468Z,6.55
2019-03-04T14:25:37.940Z,6.50
2019-03-04T14:28:05.226Z,5.85
2019-03-04T14:30:32.649Z,4.53
2019-03-04T14:33:00.055Z,4.30
2019-03-04T14:35:27.329Z,3.45
2019-03-04T14:37:54.614Z,3.58
2019-03-04T14:40:23.979Z,3.30
2019-03-04T14:42:51.329Z,3.00
2019-03-04T14:45:19.671Z,2.60
2019-03-04T14:47:47.556Z,2.30
2019-03-04T14:50:17.956Z,2.30
2019-03-04T14:52:45.351Z,2.50
2019-03-04T14:55:16.844Z,2.20
2019-03-04T14:57:44.385Z,2.40
2019-03-04T15:00:15.980Z,2.40
2019-03-04T15:02:43.347Z,2.17
2019-03-04T15:05:10.759Z,2.15
2019-03-04T15:07:38.040Z,2.00
2019-03-04T15:10:07.176Z,1.90
2019-03-04T15:12:34.531Z,1.75
2019-03-04T15:15:01.974Z,1.75
2019-03-04T15:17:29.610Z,1.60
2019-03-04T15:19:56.953Z,1.85
2019-03-04T15:22:34.220Z,2.05
2019-03-04T15:24:53.333Z,1.87
2019-03-04T15:27:20.621Z,2.02
2019-03-04T15:29:47.898Z,1.90
2019-03-04T15:32:15.181Z,1.90
2019-03-04T15:34:42.464Z,2.02
2019-03-04T15:37:09.732Z,2.10
2019-03-04T15:39:37.048Z,2.40
2019-03-04T15:42:04.465Z,2.20
2019-03-04T15:44:31.791Z,2.40
2019-03-04T15:46:59.161Z,2.80
2019-03-04T15:49:26.514Z,2.67
2019-03-04T15:51:53.804Z,2.45
2019-03-04T15:54:21.192Z,2.45
2019-03-04T15:56:48.491Z,2.40
2019-03-04T15:59:15.839Z,2.05
2019-03-04T16:01:43.191Z,2.37
2019-03-04T16:04:10.471Z,2.00
2019-03-04T16:06:38.123Z,2.00
2019-03-04T16:09:07.056Z,2.02
2019-03-04T16:11:34.336Z,2.02
2019-03-04T16:14:01.604Z,2.47
2019-03-04T16:16:28.914Z,2.20
2019-03-04T16:18:56.199Z,4.10
2019-03-04T16:21:23.497Z,5.90
2019-03-04T16:23:50.852Z,5.30
2019-03-04T16:26:18.128Z,4.42
2019-03-04T16:28:45.424Z,4.50
2019-03-04T16:31:12.701Z,4.95
2019-03-04T16:33:40.030Z,4.42
2019-03-04T16:36:07.574Z,4.20
2019-03-04T16:38:34.856Z,4.25
2019-03-04T16:41:02.249Z,3.95
2019-03-04T16:43:29.596Z,4.12
2019-03-04T16:45:56.897Z,3.85
2019-03-04T16:48:24.182Z,4.10
2019-03-04T16:50:51.476Z,3.90
2019-03-04T16:53:20.297Z,3.67
2019-03-04T16:55:47.575Z,3.98
2019-03-04T16:58:14.867Z,4.05
2019-03-04T17:00:42.223Z,3.60
2019-03-04T17:03:09.579Z,3.80
2019-03-04T17:05:36.864Z,3.05
2019-03-04T17:08:04.295Z,3.42
2019-03-04T17:10:31.827Z,3.55
2019-03-04T17:12:59.128Z,3.70
2019-03-04T17:15:26.405Z,3.70
2019-03-04T17:17:53.728Z,3.25
2019-03-04T17:20:21.138Z,3.17
2019-03-04T17:22:48.527Z,3.40
2019-03-04T17:25:19.923Z,3.50
2019-03-04T17:27:47.653Z,3.22
2019-03-04T17:30:18.738Z,2.90
2019-03-04T17:32:46.021Z,3.33
2019-03-04T17:35:14.882Z,3.35
2019-03-04T17:37:42.257Z,3.37
2019-03-04T17:40:11.029Z,3.15
2019-03-04T17:42:38.378Z,3.40
2019-03-04T17:45:07.550Z,3.37
2019-03-04T17:47:34.827Z,3.00
2019-03-04T17:50:02.093Z,3.40
2019-03-04T17:52:29.423Z,3.55
2019-03-04T17:54:56.698Z,3.05
2019-03-04T17:57:23.985Z,3.33
2019-03-04T17:59:51.261Z,3.37
2019-03-04T18:02:18.575Z,3.22
2019-03-04T18:04:45.854Z,3.15
2019-03-04T18:07:13.168Z,3.27
2019-03-04T18:09:40.452Z,3.65
2019-03-04T18:12:07.780Z,4.08
2019-03-04T18:14:35.055Z,3.50
2019-03-04T18:17:02.385Z,3.25
2019-03-04T18:19:29.672Z,3.70
2019-03-04T18:21:57.577Z,3.67
2019-03-04T18:24:24.935Z,3.33
2019-03-04T18:26:52.795Z,3.35
2019-03-04T18:29:36.858Z,4.33
2019-03-04T18:32:14.449Z,4.00
2019-03-04T18:34:46.173Z,3.92
2019-03-04T18:37:17.943Z,4.05
2019-03-04T18:39:46.771Z,13.32
2019-03-04T18:42:18.460Z,17.50
2019-03-04T18:44:47.287Z,14.60
2019-03-04T18:47:25.300Z,14.80
2019-03-04T18:49:52.601Z,12.20
2019-03-04T18:52:20.300Z,12.45
2019-03-04T18:54:47.616Z,11.63
2019-03-04T18:57:14.913Z,11.57
2019-03-04T18:59:42.185Z,10.82
2019-03-04T19:02:09.557Z,11.95
2019-03-04T19:04:36.932Z,18.32
2019-03-04T19:07:04.577Z,17.60
2019-03-04T19:09:31.872Z,13.83
2019-03-04T19:11:59.253Z,15.90
2019-03-04T19:14:26.547Z,14.15
2019-03-04T19:16:53.826Z,12.73
2019-03-04T19:19:21.128Z,12.18
2019-03-04T19:21:48.425Z,12.53
2019-03-04T19:24:15.790Z,11.08
2019-03-04T19:26:43.076Z,9.23
2019-03-04T19:29:10.910Z,10.00
2019-03-04T19:31:38.248Z,9.73
2019-03-04T19:34:05.538Z,9.23
2019-03-04T19:36:32.861Z,8.60
2019-03-04T19:39:00.216Z,8.15
2019-03-04T19:41:27.552Z,8.60
2019-03-04T19:43:54.897Z,8.00
2019-03-04T19:46:22.178Z,7.95
2019-03-04T19:48:49.473Z,7.50
2019-03-04T19:51:16.826Z,7.15
2019-03-04T19:53:44.190Z,6.78
2019-03-04T19:56:11.544Z,7.50
2019-03-04T19:58:38.829Z,7.37
2019-03-04T20:01:06.665Z,6.72
2019-03-04T20:03:33.975Z,6.60
2019-03-04T20:06:02.329Z,6.45
2019-03-04T20:08:29.634Z,7.00
2019-03-04T20:10:57.041Z,7.67
2019-03-04T20:13:24.531Z,6.75
2019-03-04T20:15:51.964Z,7.17
2019-03-04T20:18:19.465Z,7.03
2019-03-04T20:20:46.841Z,6.22
2019-03-04T20:23:14.106Z,6.53
2019-03-04T20:25:41.398Z,6.37
2019-03-04T20:28:11.810Z,5.97
2019-03-04T20:30:39.794Z,5.80
2019-03-04T20:33:07.111Z,7.33
2019-03-04T20:35:34.403Z,9.13
2019-03-04T20:38:03.051Z,7.55
2019-03-04T20:40:30.335Z,6.85
2019-03-04T20:42:57.995Z,7.12
2019-03-04T20:45:25.343Z,6.97
2019-03-04T20:47:52.770Z,6.40
2019-03-04T20:50:21.646Z,6.67
2019-03-04T20:52:49.073Z,6.75
2019-03-04T20:55:16.421Z,7.80
2019-03-04T20:57:44.075Z,6.60
2019-03-04T21:00:13.009Z,8.20
2019-03-04T21:02:40.302Z,9.83
2019-03-04T21:05:09.235Z,8.05
2019-03-04T21:07:36.784Z,11.48
2019-03-04T21:10:05.835Z,9.35
2019-03-04T21:12:34.547Z,9.03
2019-03-04T21:15:01.903Z,8.68
2019-03-04T21:17:29.189Z,16.75
2019-03-04T21:19:56.691Z,15.60
2019-03-04T21:22:24.132Z,21.30
2019-03-04T21:24:51.708Z,15.78
2019-03-04T21:27:19.431Z,19.15
2019-03-04T21:29:48.289Z,13.90
2019-03-04T21:32:19.774Z,13.93
2019-03-04T21:35:05.460Z,17.30
2019-03-04T21:37:34.354Z,19.48
2019-03-04T21:40:11.929Z,14.90
2019-03-04T21:42:46.463Z,14.93
2019-03-04T21:45:17.061Z,14.05
2019-03-04T21:48:00.948Z,13.60
2019-03-04T21:50:38.823Z,13.25
2019-03-04T21:53:07.669Z,13.45
2019-03-04T21:55:42.495Z,11.75
2019-03-04T21:58:09.850Z,12.28
2019-03-04T22:00:39.035Z,12.37
2019-03-04T22:03:10.954Z,10.48
2019-03-04T22:05:38.360Z,10.48
2019-03-04T22:08:05.917Z,10.98
2019-03-04T22:10:33.211Z,10.60
2019-03-04T22:13:00.739Z,10.23
2019-03-04T22:15:28.097Z,9.88
2019-03-04T22:17:55.396Z,9.03
2019-03-04T22:20:22.704Z,9.28
2019-03-04T22:22:50.961Z,9.85
2019-03-04T22:25:18.298Z,9.15
2019-03-04T22:27:45.635Z,9.05
2019-03-04T22:30:19.457Z,9.75
2019-03-04T22:32:47.506Z,9.13
2019-03-04T22:35:17.226Z,8.50
2019-03-04T22:37:44.621Z,8.25
2019-03-04T22:40:19.696Z,8.08
2019-03-04T22:42:47.101Z,7.67
2019-03-04T22:45:15.578Z,7.97
2019-03-04T22:47:43.341Z,8.08
2019-03-04T22:50:11.978Z,7.62
2019-03-04T22:52:39.407Z,6.90
2019-03-04T22:55:08.340Z,6.97
2019-03-04T22:57:35.734Z,7.22
2019-03-04T23:00:04.629Z,6.37
2019-03-04T23:02:31.998Z,7.00
2019-03-04T23:04:59.548Z,6.47
2019-03-04T23:07:26.838Z,6.12
2019-03-04T23:09:55.654Z,6.12
2019-03-04T23:12:27.221Z,6.03
2019-03-04T23:14:54.867Z,5.20
2019-03-04T23:17:22.160Z,5.83
2019-03-04T23:19:49.516Z,5.25
2019-03-04T23:22:17.307Z,5.55
2019-03-04T23:24:44.585Z,5.20
2019-03-04T23:27:11.876Z,5.17
2019-03-04T23:29:39.245Z,5.20
2019-03-04T23:32:06.532Z,5.33
2019-03-04T23:34:33.946Z,5.00
2019-03-04T23:37:01.238Z,4.78
2019-03-04T23:39:28.515Z,4.78
2019-03-04T23:41:55.789Z,4.53
2019-03-04T23:44:23.122Z,4.45
2019-03-04T23:46:50.410Z,4.33
2019-03-04T23:49:17.846Z,4.25
2019-03-04T23:51:45.123Z,4.50
2019-03-04T23:54:12.500Z,3.98
2019-03-04T23:56:39.795Z,4.28
2019-03-04T23:59:07.083Z,3.87
